Time;durP1;ratioP1;P1;durP2;ratioP2;P2;SDS_P1;SDS_P2;PMS_P1;PMS_P2;Temp;Humidity;BMP_temperature;BMP_pressure;BME280_temperature;BME280_humidity;BME280_pressure;Samples;Min_cycle;Max_cycle;Signal;HPM_P1;HPM_P2
2023/12/28 05:06:59;;;;;;;0.30;0.30;;;8.30;94.80;;;;;;5133152;23;20231;-69
2023/12/28 05:09:25;;;;;;;0.30;0.30;;;8.30;94.80;;;;;;4935900;29;20173;-69
2023/12/28 05:11:51;;;;;;;0.30;0.30;;;8.30;94.80;;;;;;4934895;29;20189;-69
2023/12/28 05:14:16;;;;;;;0.30;0.30;;;8.30;94.80;;;;;;4935159;29;20173;-69
2023/12/28 05:16:42;;;;;;;0.30;0.30;;;8.30;94.80;;;;;;4934806;29;20197;-68
2023/12/28 05:19:08;;;;;;;0.43;0.43;;;8.30;95.30;;;;;;4935432;29;20208;-69
2023/12/28 05:21:35;;;;;;;0.40;0.40;;;8.30;95.60;;;;;;4935821;29;20534;-70
2023/12/28 05:24:01;;;;;;;0.30;0.30;;;8.30;95.70;;;;;;4936042;29;20200;-69
2023/12/28 05:26:27;;;;;;;0.30;0.30;;;8.20;95.90;;;;;;4934944;29;20205;-68
2023/12/28 05:28:52;;;;;;;0.30;0.30;;;8.20;95.90;;;;;;4935675;29;20170;-68
2023/12/28 05:31:18;;;;;;;0.30;0.30;;;8.20;96.30;;;;;;4935700;29;20180;-69
2023/12/28 05:33:44;;;;;;;0.30;0.30;;;8.10;96.50;;;;;;4935833;29;20256;-68
2023/12/28 05:36:09;;;;;;;0.40;0.40;;;8.10;96.60;;;;;;4933857;29;20336;-68
2023/12/28 05:38:36;;;;;;;0.40;0.40;;;8.00;97.30;;;;;;4935594;29;20181;-68
2023/12/28 05:41:03;;;;;;;0.30;0.30;;;8.00;97.40;;;;;;4935571;29;20281;-68
2023/12/28 05:43:28;;;;;;;0.30;0.30;;;7.90;96.90;;;;;;4935821;29;20252;-67
2023/12/28 05:45:55;;;;;;;0.30;0.30;;;8.00;96.70;;;;;;4934784;29;20814;-68
2023/12/28 05:48:20;;;;;;;0.30;0.30;;;8.10;96.50;;;;;;4937263;29;20189;-68
2023/12/28 05:50:46;;;;;;;0.30;0.30;;;8.20;96.60;;;;;;4939061;29;20558;-68
2023/12/28 05:53:13;;;;;;;0.30;0.30;;;8.20;96.00;;;;;;4939029;29;20693;-68
2023/12/28 05:55:43;;;;;;;0.30;0.30;;;8.40;95.70;;;;;;4938523;29;20260;-69
2023/12/28 05:58:09;;;;;;;0.43;0.43;;;8.50;95.80;;;;;;4938562;29;20189;-68
2023/12/28 06:00:36;;;;;;;0.30;0.30;;;8.50;95.90;;;;;;4938024;29;20229;-69
2023/12/28 06:03:02;;;;;;;0.30;0.30;;;8.50;96.10;;;;;;4939075;29;20178;-69
2023/12/28 06:05:28;;;;;;;0.30;0.30;;;8.60;95.90;;;;;;4937956;29;20244;-70
2023/12/28 06:07:54;;;;;;;0.30;0.30;;;8.70;96.00;;;;;;4938540;29;20193;-69
2023/12/28 06:10:20;;;;;;;0.30;0.30;;;8.80;95.70;;;;;;4933705;29;20205;-68
2023/12/28 06:12:46;;;;;;;0.30;0.30;;;8.80;95.40;;;;;;4919602;29;20253;-68
2023/12/28 06:15:12;;;;;;;0.30;0.30;;;8.90;95.00;;;;;;4920581;29;20552;-68
2023/12/28 06:17:38;;;;;;;1.73;1.63;;;9.00;95.10;;;;;;4938445;29;20169;-68
2023/12/28 06:20:04;;;;;;;0.30;0.30;;;9.10;95.00;;;;;;4937889;29;20178;-68
2023/12/28 06:22:30;;;;;;;0.30;0.30;;;9.20;95.00;;;;;;4938391;29;20547;-68
2023/12/28 06:24:55;;;;;;;0.30;0.20;;;9.40;95.10;;;;;;4937968;29;20178;-69
2023/12/28 06:27:21;;;;;;;0.30;0.30;;;9.40;95.00;;;;;;4938387;29;20210;-69
2023/12/28 06:29:47;;;;;;;0.30;0.30;;;9.50;95.00;;;;;;4938124;29;20194;-68
2023/12/28 06:32:13;;;;;;;0.90;0.73;;;9.60;95.00;;;;;;4937745;29;20548;-69
2023/12/28 06:34:39;;;;;;;0.40;0.40;;;9.70;95.10;;;;;;4937958;29;20409;-69
2023/12/28 06:37:05;;;;;;;0.30;0.30;;;9.80;95.00;;;;;;4937965;29;20195;-70
2023/12/28 06:39:30;;;;;;;0.30;0.20;;;9.90;95.00;;;;;;4936570;29;20292;-69
2023/12/28 06:41:56;;;;;;;0.30;0.30;;;10.00;94.40;;;;;;4938270;29;20294;-69
2023/12/28 06:44:22;;;;;;;0.30;0.30;;;10.10;94.50;;;;;;4938071;29;20199;-69
2023/12/28 06:46:47;;;;;;;0.30;0.20;;;10.10;94.30;;;;;;4937629;29;20704;-69
2023/12/28 06:49:13;;;;;;;0.33;0.33;;;10.20;94.30;;;;;;4937677;29;20232;-70
2023/12/28 06:51:38;;;;;;;0.30;0.30;;;10.20;94.40;;;;;;4938162;29;20224;-68
2023/12/28 06:54:05;;;;;;;0.30;0.30;;;10.30;94.50;;;;;;4937800;29;20284;-68
2023/12/28 06:56:32;;;;;;;0.30;0.30;;;10.30;94.50;;;;;;4938039;29;20220;-69
2023/12/28 06:58:57;;;;;;;0.32;0.32;;;10.30;95.00;;;;;;4936895;29;20194;-69
2023/12/28 07:01:23;;;;;;;0.30;0.30;;;10.30;95.10;;;;;;4936007;29;20277;-69
2023/12/28 07:03:49;;;;;;;0.30;0.30;;;10.20;95.20;;;;;;4937900;29;20266;-68
2023/12/28 07:06:14;;;;;;;0.30;0.30;;;10.10;95.00;;;;;;4937030;29;20213;-69
2023/12/28 07:08:40;;;;;;;0.30;0.30;;;10.00;95.00;;;;;;4935525;29;20180;-69
2023/12/28 07:11:05;;;;;;;0.30;0.30;;;10.00;95.00;;;;;;4937339;29;20643;-68
2023/12/28 07:13:31;;;;;;;0.30;0.30;;;10.00;95.00;;;;;;4936108;29;20257;-69
2023/12/28 07:15:57;;;;;;;0.30;0.30;;;10.00;95.00;;;;;;4936433;29;20203;-68
2023/12/28 07:18:23;;;;;;;0.40;0.37;;;10.00;95.00;;;;;;4935943;29;20186;-68
2023/12/28 07:20:48;;;;;;;0.30;0.30;;;10.10;95.10;;;;;;4937709;29;20173;-69
2023/12/28 07:23:14;;;;;;;0.30;0.30;;;10.10;95.10;;;;;;4935876;29;20279;-69
2023/12/28 07:25:40;;;;;;;0.30;0.30;;;10.10;95.10;;;;;;4936305;29;20223;-68
2023/12/28 07:28:06;;;;;;;0.30;0.30;;;10.10;95.50;;;;;;4935857;29;20546;-69
2023/12/28 07:30:31;;;;;;;0.40;0.40;;;10.10;95.90;;;;;;4936352;29;20489;-68
2023/12/28 07:32:57;;;;;;;0.30;0.30;;;10.10;96.10;;;;;;4936973;29;20407;-70
2023/12/28 07:35:23;;;;;;;0.30;0.30;;;10.10;96.10;;;;;;4936666;29;20197;-68
2023/12/28 07:37:54;;;;;;;0.30;0.30;;;10.00;96.20;;;;;;4936550;29;20797;-67
2023/12/28 07:40:20;;;;;;;0.30;0.30;;;10.00;96.30;;;;;;4936407;29;20182;-68
2023/12/28 07:42:45;;;;;;;0.30;0.30;;;9.90;97.00;;;;;;4935946;29;20186;-68
2023/12/28 07:45:11;;;;;;;0.50;0.50;;;9.90;97.00;;;;;;4935373;29;20195;-70
2023/12/28 07:47:36;;;;;;;0.30;0.30;;;9.90;96.90;;;;;;4935763;29;20299;-70
2023/12/28 07:50:02;;;;;;;0.30;0.30;;;9.90;96.90;;;;;;4935359;29;20623;-71
2023/12/28 07:52:28;;;;;;;0.30;0.30;;;9.90;97.00;;;;;;4935681;29;20174;-69
2023/12/28 07:54:54;;;;;;;0.30;0.30;;;9.90;96.60;;;;;;4935411;29;20428;-68
2023/12/28 07:57:20;;;;;;;0.30;0.30;;;10.00;96.70;;;;;;4935649;29;20187;-67
2023/12/28 07:59:46;;;;;;;0.30;0.30;;;10.00;96.60;;;;;;4935350;29;20557;-65
2023/12/28 08:02:11;;;;;;;0.30;0.30;;;10.00;96.50;;;;;;4935728;29;20190;-67
2023/12/28 08:04:37;;;;;;;0.30;0.30;;;10.00;96.50;;;;;;4935462;29;20179;-66
2023/12/28 08:07:04;;;;;;;0.30;0.30;;;10.10;96.50;;;;;;4935397;29;20213;-65
2023/12/28 08:09:29;;;;;;;0.30;0.30;;;10.10;96.60;;;;;;4936317;29;20187;-66
2023/12/28 08:11:55;;;;;;;0.30;0.30;;;10.10;96.60;;;;;;4936207;29;20414;-67
2023/12/28 08:14:21;;;;;;;0.30;0.30;;;10.20;96.70;;;;;;4935924;29;20189;-66
2023/12/28 08:16:46;;;;;;;0.30;0.30;;;10.20;96.90;;;;;;4936455;29;20550;-66
2023/12/28 08:19:13;;;;;;;0.30;0.30;;;10.20;96.90;;;;;;4936009;29;20186;-65
2023/12/28 08:21:38;;;;;;;0.30;0.30;;;10.20;97.10;;;;;;4936219;29;20202;-67
2023/12/28 08:24:07;;;;;;;0.30;0.30;;;10.20;97.20;;;;;;4935278;29;20192;-66
2023/12/28 08:26:33;;;;;;;0.30;0.30;;;10.10;97.50;;;;;;4935953;29;20203;-66
2023/12/28 08:28:59;;;;;;;0.40;0.40;;;10.10;97.60;;;;;;4935330;29;20913;-66
2023/12/28 08:31:24;;;;;;;0.30;0.30;;;10.00;97.90;;;;;;4936139;29;20179;-66
2023/12/28 08:33:50;;;;;;;1.03;0.73;;;10.00;98.20;;;;;;4936205;29;20392;-65
2023/12/28 08:36:17;;;;;;;0.30;0.30;;;9.90;98.70;;;;;;4934396;29;20567;-66
2023/12/28 08:38:43;;;;;;;0.30;0.30;;;9.90;99.00;;;;;;4935585;29;20171;-67
2023/12/28 08:41:21;;;;;;;0.30;0.30;;;9.90;99.00;;;;;;4936225;29;20212;-66
2023/12/28 08:43:47;;;;;;;0.30;0.30;;;10.00;98.50;;;;;;4935259;29;20183;-68
2023/12/28 08:46:14;;;;;;;0.30;0.30;;;10.00;98.30;;;;;;4934872;29;20236;-68
2023/12/28 08:48:40;;;;;;;0.30;0.30;;;10.10;98.00;;;;;;4934783;29;20493;-68
2023/12/28 08:51:05;;;;;;;0.30;0.30;;;10.10;97.90;;;;;;4933367;29;20265;-67
2023/12/28 08:53:31;;;;;;;0.30;0.30;;;10.10;97.80;;;;;;4932744;29;20470;-66
2023/12/28 08:55:57;;;;;;;0.30;0.30;;;10.20;98.10;;;;;;4935121;29;20206;-67
2023/12/28 08:58:26;;;;;;;0.30;0.30;;;10.20;97.80;;;;;;4935093;29;20428;-67
2023/12/28 09:00:51;;;;;;;0.30;0.30;;;10.20;97.90;;;;;;4933407;29;20186;-69
2023/12/28 09:03:17;;;;;;;0.30;0.30;;;10.30;98.00;;;;;;4935319;29;20427;-68
2023/12/28 09:05:43;;;;;;;0.30;0.30;;;10.30;98.00;;;;;;4933139;29;20289;-72
2023/12/28 09:08:08;;;;;;;0.30;0.30;;;10.30;98.10;;;;;;4929389;29;20214;-69
2023/12/28 09:10:34;;;;;;;0.73;0.73;;;10.30;98.20;;;;;;4930793;29;20182;-68
2023/12/28 09:13:00;;;;;;;0.30;0.30;;;10.40;98.40;;;;;;4930237;29;20186;-68
2023/12/28 09:15:25;;;;;;;0.67;0.67;;;10.40;98.40;;;;;;4930051;29;20206;-64
2023/12/28 09:17:51;;;;;;;0.30;0.30;;;10.40;99.20;;;;;;4929172;29;20256;-66
2023/12/28 09:20:18;;;;;;;0.30;0.30;;;10.40;99.60;;;;;;4928890;29;20183;-65
2023/12/28 09:22:44;;;;;;;0.30;0.30;;;10.30;99.70;;;;;;4931164;29;20903;-66
2023/12/28 09:25:09;;;;;;;0.30;0.30;;;10.30;99.80;;;;;;4933711;29;20239;-64
2023/12/28 09:27:35;;;;;;;0.40;0.40;;;10.20;99.90;;;;;;4933986;29;20941;-66
2023/12/28 09:30:00;;;;;;;0.30;0.30;;;10.10;99.90;;;;;;4938148;29;20294;-64
2023/12/28 09:32:26;;;;;;;0.30;0.30;;;10.10;99.90;;;;;;4937996;29;20265;-66
2023/12/28 09:34:51;;;;;;;0.30;0.30;;;10.10;99.90;;;;;;4938276;29;20194;-64
2023/12/28 09:37:17;;;;;;;0.40;0.40;;;10.10;99.90;;;;;;4938892;29;20190;-66
2023/12/28 09:39:44;;;;;;;0.30;0.30;;;10.10;99.90;;;;;;4938603;29;20647;-63
2023/12/28 09:42:21;;;;;;;0.40;0.40;;;10.20;99.90;;;;;;4938795;29;20178;-65
2023/12/28 09:44:47;;;;;;;0.30;0.30;;;10.20;99.90;;;;;;4938208;29;20193;-64
2023/12/28 09:47:14;;;;;;;0.30;0.30;;;10.30;99.90;;;;;;4938632;29;20204;-65
2023/12/28 09:49:41;;;;;;;0.30;0.20;;;10.40;99.90;;;;;;4938173;29;20177;-66
2023/12/28 09:52:07;;;;;;;0.35;0.35;;;10.30;99.90;;;;;;4937834;29;20448;-66
2023/12/28 09:54:34;;;;;;;0.30;0.30;;;10.40;99.90;;;;;;4937973;29;20177;-66
2023/12/28 09:56:59;;;;;;;0.30;0.30;;;10.40;99.90;;;;;;4938577;29;20607;-66
2023/12/28 09:59:27;;;;;;;0.30;0.30;;;10.50;99.90;;;;;;4938901;29;20253;-64
2023/12/28 10:01:54;;;;;;;0.30;0.30;;;10.50;99.90;;;;;;4938506;29;20189;-66
2023/12/28 10:04:21;;;;;;;0.30;0.30;;;10.60;99.90;;;;;;4937712;29;20447;-67
2023/12/28 10:06:46;;;;;;;0.30;0.30;;;10.70;99.90;;;;;;4938283;29;20500;-65
2023/12/28 10:09:12;;;;;;;0.50;0.50;;;10.80;99.90;;;;;;4937710;29;20451;-66
2023/12/28 10:11:38;;;;;;;0.30;0.30;;;10.90;99.90;;;;;;4937142;29;20200;-64
2023/12/28 10:14:04;;;;;;;0.30;0.30;;;11.00;99.90;;;;;;4937447;29;20594;-67
2023/12/28 10:16:30;;;;;;;0.30;0.30;;;11.10;99.90;;;;;;4938052;29;20209;-64
2023/12/28 10:18:57;;;;;;;0.30;0.30;;;11.10;99.90;;;;;;4938219;29;20977;-64
2023/12/28 10:21:23;;;;;;;0.30;0.30;;;11.20;99.90;;;;;;4938358;29;20175;-65
2023/12/28 10:23:49;;;;;;;0.30;0.30;;;11.10;99.90;;;;;;4937636;29;20428;-64
2023/12/28 10:26:17;;;;;;;0.30;0.30;;;11.00;99.90;;;;;;4937364;29;20795;-65
2023/12/28 10:28:44;;;;;;;0.30;0.30;;;11.00;99.90;;;;;;4937674;29;20267;-66
2023/12/28 10:31:09;;;;;;;0.30;0.30;;;10.90;99.90;;;;;;4938028;29;20424;-66
2023/12/28 10:33:36;;;;;;;0.30;0.30;;;10.80;99.90;;;;;;4937309;29;20930;-65
2023/12/28 10:36:06;;;;;;;0.30;0.30;;;10.70;99.90;;;;;;4937217;29;20218;-65
2023/12/28 10:38:36;;;;;;;1.47;1.43;;;10.70;99.90;;;;;;4937922;29;20432;-64
2023/12/28 10:41:09;;;;;;;0.30;0.30;;;10.70;99.90;;;;;;4938139;29;20938;-65
2023/12/28 10:43:47;;;;;;;0.40;0.40;;;10.60;99.90;;;;;;4938276;29;20412;-64
2023/12/28 10:46:42;;;;;;;0.30;0.30;;;10.70;99.90;;;;;;4936933;29;20466;-63
2023/12/28 10:49:16;;;;;;;0.30;0.30;;;10.70;99.90;;;;;;4929489;29;20451;-64
2023/12/28 10:51:43;;;;;;;0.30;0.30;;;10.70;99.90;;;;;;4937521;29;20431;-63
2023/12/28 10:54:30;;;;;;;0.30;0.30;;;10.60;99.90;;;;;;4937085;29;20415;-62
2023/12/28 10:57:04;;;;;;;0.30;0.30;;;10.60;99.90;;;;;;4924678;29;20578;-67
2023/12/28 10:59:32;;;;;;;0.30;0.30;;;10.60;99.90;;;;;;4937555;29;20471;-68
2023/12/28 11:02:01;;;;;;;0.67;0.67;;;10.70;99.90;;;;;;4937013;29;20459;-68
2023/12/28 11:04:34;;;;;;;0.30;0.20;;;10.80;99.90;;;;;;4936494;29;20423;-68
2023/12/28 11:07:03;;;;;;;0.30;0.30;;;10.90;99.90;;;;;;4935756;29;20987;-69
2023/12/28 11:09:30;;;;;;;0.30;0.20;;;10.90;99.90;;;;;;4937323;29;20770;-73
2023/12/28 11:11:59;;;;;;;0.30;0.30;;;11.00;99.90;;;;;;4936578;29;20420;-69
2023/12/28 11:14:26;;;;;;;0.30;0.30;;;11.10;99.90;;;;;;4936751;29;20792;-69
2023/12/28 11:16:53;;;;;;;0.30;0.30;;;11.20;99.90;;;;;;4936411;29;20627;-69
2023/12/28 11:19:21;;;;;;;0.30;0.30;;;11.20;99.90;;;;;;4936135;29;20430;-70
2023/12/28 11:21:48;;;;;;;0.50;0.50;;;11.30;99.90;;;;;;4936853;29;20499;-67
2023/12/28 11:24:14;;;;;;;0.40;0.40;;;11.30;99.90;;;;;;4936179;29;20420;-68
2023/12/28 11:26:40;;;;;;;0.30;0.30;;;11.40;99.90;;;;;;4936814;29;20459;-67
2023/12/28 11:29:06;;;;;;;0.30;0.30;;;11.40;99.90;;;;;;4936956;29;20420;-66
2023/12/28 11:31:35;;;;;;;0.30;0.30;;;11.50;99.90;;;;;;4936865;29;20188;-67
2023/12/28 11:34:03;;;;;;;0.30;0.30;;;11.60;99.90;;;;;;4936683;29;20179;-68
2023/12/28 11:36:38;;;;;;;0.30;0.20;;;11.60;99.90;;;;;;4936216;29;20930;-71
2023/12/28 11:39:06;;;;;;;0.80;0.50;;;11.60;99.90;;;;;;4936872;29;20922;-71
2023/12/28 11:41:33;;;;;;;0.30;0.20;;;11.60;99.90;;;;;;4936611;29;20417;-70
2023/12/28 11:44:02;;;;;;;0.30;0.30;;;11.60;99.90;;;;;;4936990;29;20387;-70
2023/12/28 11:46:29;;;;;;;0.30;0.30;;;11.60;99.90;;;;;;4935254;29;20507;-68
2023/12/28 11:49:09;;;;;;;0.33;0.33;;;11.60;99.90;;;;;;4936916;29;20420;-66
2023/12/28 11:51:38;;;;;;;0.30;0.30;;;11.50;99.90;;;;;;4936090;29;20411;-67
2023/12/28 11:54:04;;;;;;;0.30;0.30;;;11.50;99.90;;;;;;4936317;29;20409;-67
2023/12/28 11:56:30;;;;;;;0.30;0.20;;;11.50;99.90;;;;;;4936237;29;20425;-68
2023/12/28 11:58:56;;;;;;;0.33;0.33;;;11.40;99.90;;;;;;4936519;29;20433;-68
2023/12/28 12:01:21;;;;;;;0.50;0.50;;;11.40;99.90;;;;;;4936508;29;20446;-68
2023/12/28 12:03:49;;;;;;;0.40;0.40;;;11.40;99.90;;;;;;4936163;29;20184;-69
2023/12/28 12:06:14;;;;;;;0.60;0.60;;;11.30;99.90;;;;;;4935434;29;20208;-69
2023/12/28 12:08:40;;;;;;;0.30;0.30;;;11.30;99.90;;;;;;4935786;29;20431;-68
2023/12/28 12:11:06;;;;;;;0.97;0.67;;;11.30;99.90;;;;;;4936195;29;20184;-68
2023/12/28 12:13:33;;;;;;;0.50;0.40;;;11.30;99.90;;;;;;4936549;29;20169;-68
2023/12/28 12:15:59;;;;;;;0.30;0.30;;;11.30;99.90;;;;;;4936251;29;20779;-68
2023/12/28 12:18:26;;;;;;;0.40;0.40;;;11.30;99.90;;;;;;4935380;29;20419;-68
2023/12/28 12:20:51;;;;;;;0.60;0.60;;;11.30;99.90;;;;;;4935938;29;20479;-68
2023/12/28 12:23:17;;;;;;;0.37;0.37;;;11.40;99.90;;;;;;4936003;29;20399;-68
2023/12/28 12:25:45;;;;;;;0.30;0.30;;;11.40;99.90;;;;;;4933756;29;20220;-66
2023/12/28 12:28:11;;;;;;;0.30;0.30;;;11.40;99.90;;;;;;4935882;29;20212;-69
2023/12/28 12:30:37;;;;;;;0.30;0.30;;;11.40;99.90;;;;;;4935088;29;20740;-68
2023/12/28 12:33:02;;;;;;;0.30;0.30;;;11.50;99.90;;;;;;4935710;29;20422;-68
2023/12/28 12:35:28;;;;;;;3.13;2.20;;;11.50;99.90;;;;;;4935079;29;20192;-68
2023/12/28 12:37:54;;;;;;;0.40;0.40;;;11.50;99.90;;;;;;4934294;29;20245;-69
2023/12/28 12:40:21;;;;;;;0.40;0.40;;;11.60;99.90;;;;;;4935062;29;20424;-69
2023/12/28 12:42:56;;;;;;;0.50;0.50;;;11.70;99.90;;;;;;4935375;29;20177;-69
2023/12/28 12:45:21;;;;;;;0.30;0.23;;;11.60;99.90;;;;;;4934251;29;20435;-68
2023/12/28 12:47:48;;;;;;;0.30;0.30;;;11.60;99.90;;;;;;4935531;29;20499;-68
2023/12/28 12:50:15;;;;;;;0.30;0.20;;;11.60;99.90;;;;;;4935276;29;20581;-70
2023/12/28 12:52:42;;;;;;;0.30;0.30;;;11.60;99.90;;;;;;4935817;29;20919;-68
2023/12/28 12:55:13;;;;;;;0.30;0.30;;;11.60;99.90;;;;;;4935365;29;20446;-68
2023/12/28 12:57:40;;;;;;;0.30;0.30;;;11.60;99.90;;;;;;4937895;29;20416;-66
2023/12/28 13:00:09;;;;;;;0.30;0.30;;;11.60;99.90;;;;;;4939199;29;20471;-68
2023/12/28 13:02:36;;;;;;;0.30;0.30;;;11.60;99.90;;;;;;4938918;29;20515;-67
2023/12/28 13:05:03;;;;;;;0.30;0.30;;;11.60;99.90;;;;;;4937314;29;20942;-67
2023/12/28 13:07:29;;;;;;;0.30;0.20;;;11.60;99.90;;;;;;4939201;29;20834;-68
2023/12/28 13:09:54;;;;;;;0.30;0.30;;;11.70;99.90;;;;;;4939443;29;20438;-70
2023/12/28 13:12:20;;;;;;;0.30;0.30;;;11.70;99.90;;;;;;4939485;29;20173;-69
2023/12/28 13:14:46;;;;;;;0.30;0.30;;;11.60;99.90;;;;;;4938786;29;20180;-69
2023/12/28 13:17:11;;;;;;;0.30;0.30;;;11.60;99.90;;;;;;4938810;29;20630;-68
2023/12/28 13:19:37;;;;;;;0.30;0.30;;;11.60;99.90;;;;;;4939370;29;20181;-69
2023/12/28 13:22:04;;;;;;;0.70;0.70;;;11.60;99.90;;;;;;4939342;29;20635;-70
2023/12/28 13:24:30;;;;;;;0.53;0.53;;;11.60;99.90;;;;;;4938802;29;20275;-70
2023/12/28 13:26:56;;;;;;;0.77;0.77;;;11.60;99.90;;;;;;4937581;29;20456;-69
2023/12/28 13:29:22;;;;;;;0.30;0.30;;;11.50;99.90;;;;;;4939167;29;20430;-69
2023/12/28 13:31:50;;;;;;;0.30;0.30;;;11.40;99.90;;;;;;4938898;29;20814;-68
2023/12/28 13:34:16;;;;;;;0.40;0.40;;;11.40;99.90;;;;;;4938836;29;20173;-68
2023/12/28 13:36:42;;;;;;;0.43;0.43;;;11.30;99.90;;;;;;4938317;29;20441;-66
2023/12/28 13:39:11;;;;;;;0.30;0.30;;;11.30;99.90;;;;;;4939106;29;20393;-70
2023/12/28 13:41:37;;;;;;;0.30;0.30;;;11.30;99.90;;;;;;4938351;29;20184;-67
2023/12/28 13:44:04;;;;;;;0.40;0.40;;;11.30;99.90;;;;;;4938975;29;20428;-67
2023/12/28 13:46:30;;;;;;;0.47;0.47;;;11.30;99.90;;;;;;4938701;29;20460;-69
2023/12/28 13:48:56;;;;;;;1.23;0.70;;;11.30;99.90;;;;;;4938800;29;20415;-69
2023/12/28 13:51:22;;;;;;;0.30;0.30;;;11.40;99.90;;;;;;4938479;29;20434;-69
2023/12/28 13:53:48;;;;;;;0.30;0.30;;;11.40;99.90;;;;;;4938554;29;20428;-69
2023/12/28 13:56:13;;;;;;;0.30;0.30;;;11.30;99.90;;;;;;4938259;29;20527;-70
2023/12/28 13:58:39;;;;;;;1.03;1.03;;;11.30;99.90;;;;;;4941301;29;20186;-68
2023/12/28 14:01:05;;;;;;;0.30;0.30;;;11.30;99.90;;;;;;4941598;29;20180;-70
2023/12/28 14:03:30;;;;;;;0.30;0.30;;;11.20;99.90;;;;;;4938221;29;20691;-69
2023/12/28 14:05:56;;;;;;;0.30;0.30;;;11.30;99.90;;;;;;4936752;29;20249;-68
2023/12/28 14:08:21;;;;;;;0.30;0.20;;;11.30;99.90;;;;;;4937556;29;20195;-69
2023/12/28 14:10:47;;;;;;;0.30;0.30;;;11.30;99.90;;;;;;4938457;29;20179;-68
2023/12/28 14:13:13;;;;;;;0.30;0.30;;;11.30;99.90;;;;;;4939029;29;20180;-70
2023/12/28 14:15:38;;;;;;;0.30;0.30;;;11.30;99.90;;;;;;4937843;29;20210;-70
2023/12/28 14:18:06;;;;;;;1.80;0.73;;;11.30;99.90;;;;;;4936747;29;20185;-70
2023/12/28 14:20:32;;;;;;;0.30;0.30;;;11.30;99.90;;;;;;4938410;29;20169;-68
2023/12/28 14:22:57;;;;;;;0.30;0.30;;;11.30;99.90;;;;;;4938162;29;20427;-69
2023/12/28 14:25:24;;;;;;;0.30;0.30;;;11.30;99.90;;;;;;4937920;29;20193;-65
2023/12/28 14:27:50;;;;;;;0.30;0.30;;;11.30;99.90;;;;;;4938297;29;20815;-67
2023/12/28 14:30:16;;;;;;;0.30;0.30;;;11.20;99.90;;;;;;4938292;29;20410;-68
2023/12/28 14:32:42;;;;;;;0.30;0.30;;;11.20;99.90;;;;;;4937560;29;20427;-65
2023/12/28 14:35:08;;;;;;;0.30;0.30;;;11.20;99.90;;;;;;4937873;29;20828;-68
2023/12/28 14:37:34;;;;;;;0.30;0.20;;;11.20;99.90;;;;;;4937922;29;20936;-68
2023/12/28 14:39:59;;;;;;;0.40;0.40;;;11.20;99.90;;;;;;4938151;29;20447;-69
2023/12/28 14:42:25;;;;;;;0.40;0.40;;;11.20;99.90;;;;;;4937914;29;20177;-68
2023/12/28 14:44:51;;;;;;;0.30;0.27;;;11.10;99.90;;;;;;4937615;29;20171;-67
2023/12/28 14:47:17;;;;;;;0.30;0.30;;;11.10;99.90;;;;;;4937726;29;20230;-68
2023/12/28 14:49:44;;;;;;;0.30;0.20;;;11.10;99.90;;;;;;4938045;29;20448;-69
2023/12/28 14:52:10;;;;;;;0.30;0.30;;;11.10;99.90;;;;;;4937654;29;20176;-70
2023/12/28 14:54:35;;;;;;;0.30;0.30;;;11.20;99.90;;;;;;4936908;29;20794;-67
2023/12/28 14:57:01;;;;;;;0.30;0.30;;;11.20;99.90;;;;;;4937635;29;20191;-70
2023/12/28 14:59:27;;;;;;;0.30;0.20;;;11.20;99.90;;;;;;4937793;29;20181;-70
2023/12/28 15:01:52;;;;;;;0.40;0.40;;;11.20;99.90;;;;;;4937018;29;20187;-68
2023/12/28 15:04:18;;;;;;;0.30;0.20;;;11.30;99.90;;;;;;4937574;29;20180;-69
2023/12/28 15:06:43;;;;;;;0.30;0.30;;;11.20;99.90;;;;;;4937508;29;20224;-70
2023/12/28 15:09:09;;;;;;;0.30;0.27;;;11.30;99.90;;;;;;4937237;29;20237;-67
2023/12/28 15:11:36;;;;;;;0.30;0.30;;;11.30;99.90;;;;;;4937284;29;20310;-69
2023/12/28 15:14:03;;;;;;;0.30;0.30;;;11.30;99.90;;;;;;4937317;29;20168;-68
2023/12/28 15:16:29;;;;;;;0.30;0.30;;;11.30;99.90;;;;;;4935225;29;20440;-68
2023/12/28 15:18:54;;;;;;;0.30;0.30;;;11.30;99.90;;;;;;4937642;29;20411;-69
2023/12/28 15:21:20;;;;;;;0.30;0.20;;;11.30;99.90;;;;;;4936346;29;20419;-68
2023/12/28 15:23:46;;;;;;;0.40;0.40;;;11.30;99.90;;;;;;4936465;29;20183;-69
2023/12/28 15:26:13;;;;;;;0.30;0.30;;;11.30;99.90;;;;;;4936841;29;20491;-69
2023/12/28 15:28:38;;;;;;;0.40;0.40;;;11.30;99.90;;;;;;4936995;29;20919;-67
2023/12/28 15:31:04;;;;;;;0.30;0.30;;;11.30;99.90;;;;;;4937263;29;20494;-68
2023/12/28 15:33:30;;;;;;;0.30;0.30;;;11.30;99.90;;;;;;4937217;29;20177;-68
2023/12/28 15:35:56;;;;;;;0.40;0.40;;;11.30;99.90;;;;;;4936917;29;20436;-67
2023/12/28 15:38:21;;;;;;;0.70;0.70;;;11.30;99.90;;;;;;4936791;29;20254;-68
2023/12/28 15:40:47;;;;;;;0.30;0.30;;;11.30;99.90;;;;;;4936809;29;20263;-67
2023/12/28 15:43:12;;;;;;;0.30;0.30;;;11.30;99.90;;;;;;4936987;29;20178;-66
2023/12/28 15:45:38;;;;;;;0.30;0.30;;;11.30;99.90;;;;;;4936538;29;20196;-66
2023/12/28 15:48:04;;;;;;;0.40;0.40;;;11.30;99.90;;;;;;4936891;29;20206;-67
2023/12/28 15:50:30;;;;;;;0.40;0.40;;;11.30;99.90;;;;;;4936729;29;20218;-67
2023/12/28 15:52:56;;;;;;;0.30;0.30;;;11.30;99.90;;;;;;4936512;29;20443;-67
2023/12/28 15:55:22;;;;;;;0.30;0.20;;;11.30;99.90;;;;;;4936404;29;20207;-66
2023/12/28 15:57:50;;;;;;;0.30;0.30;;;11.20;99.90;;;;;;4936886;29;20407;-67
2023/12/28 16:00:16;;;;;;;0.30;0.30;;;11.20;99.90;;;;;;4936647;29;20183;-68
2023/12/28 16:02:42;;;;;;;0.40;0.40;;;11.20;99.90;;;;;;4936653;29;20395;-68
2023/12/28 16:05:08;;;;;;;0.30;0.20;;;11.30;99.90;;;;;;4936463;29;20454;-66
2023/12/28 16:07:33;;;;;;;0.30;0.30;;;11.30;99.90;;;;;;4936230;29;20468;-69
2023/12/28 16:09:59;;;;;;;0.30;0.20;;;11.30;99.90;;;;;;4936070;29;20417;-66
2023/12/28 16:12:25;;;;;;;0.30;0.30;;;11.20;99.90;;;;;;4935204;29;20195;-69
2023/12/28 16:14:51;;;;;;;0.30;0.30;;;11.30;99.90;;;;;;4935830;29;20178;-68
2023/12/28 16:17:17;;;;;;;0.30;0.30;;;11.30;99.90;;;;;;4936364;29;20175;-68
2023/12/28 16:19:42;;;;;;;0.90;0.63;;;11.20;99.90;;;;;;4936182;29;20756;-67
2023/12/28 16:22:08;;;;;;;0.30;0.20;;;11.20;99.90;;;;;;4936030;29;20426;-67
2023/12/28 16:24:34;;;;;;;0.83;0.50;;;11.30;99.90;;;;;;4936185;29;20250;-67
2023/12/28 16:27:00;;;;;;;0.30;0.20;;;11.20;99.90;;;;;;4935742;29;20207;-67
2023/12/28 16:29:25;;;;;;;0.37;0.37;;;11.20;99.90;;;;;;4936049;29;20176;-67
2023/12/28 16:31:51;;;;;;;0.30;0.30;;;11.20;99.90;;;;;;4935472;29;20592;-66
2023/12/28 16:34:16;;;;;;;0.30;0.20;;;11.20;99.90;;;;;;4935331;29;20266;-67
2023/12/28 16:36:42;;;;;;;0.30;0.30;;;11.20;99.90;;;;;;4935515;29;20582;-66
2023/12/28 16:39:07;;;;;;;0.30;0.30;;;11.20;99.90;;;;;;4934988;29;20591;-67
2023/12/28 16:41:33;;;;;;;0.30;0.30;;;11.20;99.90;;;;;;4935250;29;20182;-66
2023/12/28 16:44:00;;;;;;;0.30;0.30;;;11.20;99.90;;;;;;4934730;29;20241;-65
2023/12/28 16:46:26;;;;;;;0.30;0.30;;;11.20;99.90;;;;;;4935423;29;20343;-62
2023/12/28 16:48:51;;;;;;;0.40;0.40;;;11.20;99.90;;;;;;4935554;29;20879;-64
2023/12/28 16:51:17;;;;;;;0.30;0.30;;;11.10;99.90;;;;;;4935917;29;20199;-64
2023/12/28 16:53:47;;;;;;;0.37;0.37;;;11.10;99.90;;;;;;4936183;29;20189;-65
2023/12/28 16:56:12;;;;;;;0.30;0.30;;;11.10;99.90;;;;;;4935500;29;20529;-64
2023/12/28 16:58:38;;;;;;;0.40;0.40;;;11.00;99.90;;;;;;4936044;29;20419;-66
2023/12/28 17:01:04;;;;;;;0.30;0.30;;;11.00;99.90;;;;;;4935600;29;20279;-65
2023/12/28 17:03:29;;;;;;;0.30;0.30;;;11.00;99.90;;;;;;4936104;29;20176;-63
2023/12/28 17:05:55;;;;;;;0.30;0.30;;;10.90;99.90;;;;;;4935023;29;20545;-67
2023/12/28 17:08:20;;;;;;;0.30;0.30;;;11.00;99.90;;;;;;4935719;29;20238;-68
2023/12/28 17:10:46;;;;;;;0.30;0.30;;;10.90;99.90;;;;;;4935395;29;20645;-67
2023/12/28 17:13:13;;;;;;;0.30;0.20;;;11.00;99.90;;;;;;4936304;29;20177;-67
2023/12/28 17:15:39;;;;;;;0.30;0.30;;;11.00;99.90;;;;;;4934994;29;20258;-68
2023/12/28 17:18:07;;;;;;;0.30;0.30;;;10.90;99.90;;;;;;4935665;29;20550;-68
2023/12/28 17:20:33;;;;;;;0.30;0.30;;;11.00;99.90;;;;;;4934408;29;20422;-68
2023/12/28 17:23:24;;;;;;;0.40;0.40;;;11.00;99.90;;;;;;4935092;29;20447;-68
2023/12/28 17:26:08;;;;;;;0.30;0.30;;;11.00;99.90;;;;;;4933919;29;20448;-67
2023/12/28 17:28:44;;;;;;;0.30;0.30;;;11.00;99.90;;;;;;4935228;29;20203;-66
2023/12/28 17:31:13;;;;;;;0.30;0.30;;;11.00;99.90;;;;;;4935045;29;20208;-66
2023/12/28 17:33:39;;;;;;;0.30;0.20;;;11.00;99.90;;;;;;4935559;29;20184;-66
2023/12/28 17:36:05;;;;;;;0.30;0.30;;;10.90;99.90;;;;;;4935248;29;20487;-67
2023/12/28 17:38:31;;;;;;;0.30;0.30;;;10.90;99.90;;;;;;4935796;29;20508;-67
2023/12/28 17:40:57;;;;;;;0.50;0.50;;;10.90;99.90;;;;;;4934258;29;20457;-67
2023/12/28 17:43:33;;;;;;;0.30;0.20;;;10.90;99.90;;;;;;4936611;29;20440;-68
2023/12/28 17:46:02;;;;;;;0.30;0.30;;;10.90;99.90;;;;;;4936239;29;20534;-68
2023/12/28 17:48:31;;;;;;;0.33;0.33;;;10.90;99.90;;;;;;4938469;29;20413;-66
2023/12/28 17:50:58;;;;;;;0.30;0.30;;;10.90;99.90;;;;;;4935657;29;20414;-67